DAL1094 LEBL-LXGB
Flight info
| Callsign | DAL1094 |
|---|---|
| Flight time | 1h 54m |
| Altitude | 37000 |
| Route | LOTOS M985 MGA N869 PIMOS |
| Aircraft | B738/M-SDE2E3FGHIRWXY/LB1 |
Departure
| Time | 2026-05-04 01:11 |
|---|---|
| Airport | Josep Tarradellas Barcelona-El Prat Airport (LEBL) |
Arrival
| Time | 2026-05-04 03:05 |
|---|---|
| Airport | Gibraltar Airport (LXGB) |
| Time | Latitude | Longitude | Altitude | Speed | Heading |
|---|---|---|---|---|---|
| 2026-05-04 00:39 | 41.29153 | 2.07943 | 18 ft | 0 kts | 155° |
| 2026-05-04 01:00 | 41.29156 | 2.07941 | 18 ft | 3 kts | 155° |
| 2026-05-04 01:00 | 41.29181 | 2.07926 | 18 ft | 4 kts | 156° |
| 2026-05-04 01:00 | 41.29205 | 2.07912 | 19 ft | 4 kts | 152° |
| 2026-05-04 01:01 | 41.29218 | 2.07898 | 18 ft | 2 kts | 101° |
| 2026-05-04 01:01 | 41.29218 | 2.07883 | 18 ft | 2 kts | 70° |
| 2026-05-04 01:01 | 41.29215 | 2.07874 | 18 ft | 0 kts | 67° |
| 2026-05-04 01:05 | 41.29218 | 2.07884 | 18 ft | 3 kts | 65° |
| 2026-05-04 01:05 | 41.29235 | 2.07933 | 20 ft | 8 kts | 66° |
| 2026-05-04 01:05 | 41.29264 | 2.08021 | 19 ft | 12 kts | 64° |
| 2026-05-04 01:06 | 41.29302 | 2.08132 | 18 ft | 14 kts | 67° |
| 2026-05-04 01:06 | 41.29345 | 2.08255 | 19 ft | 15 kts | 66° |
| 2026-05-04 01:06 | 41.29364 | 2.08361 | 18 ft | 12 kts | 111° |
| 2026-05-04 01:06 | 41.29297 | 2.08419 | 20 ft | 12 kts | 157° |
| 2026-05-04 01:07 | 41.29222 | 2.08450 | 21 ft | 11 kts | 185° |
| 2026-05-04 01:07 | 41.29142 | 2.08419 | 19 ft | 13 kts | 199° |
| 2026-05-04 01:07 | 41.29055 | 2.08376 | 19 ft | 14 kts | 201° |
| 2026-05-04 01:07 | 41.28959 | 2.08332 | 17 ft | 15 kts | 197° |
| 2026-05-04 01:08 | 41.28858 | 2.08288 | 16 ft | 16 kts | 199° |
| 2026-05-04 01:08 | 41.28758 | 2.08242 | 15 ft | 10 kts | 199° |
| 2026-05-04 01:08 | 41.28710 | 2.08246 | 16 ft | 5 kts | 129° |
| 2026-05-04 01:08 | 41.28703 | 2.08284 | 16 ft | 4 kts | 76° |
| 2026-05-04 01:09 | 41.28722 | 2.08325 | 15 ft | 7 kts | 62° |
| 2026-05-04 01:09 | 41.28747 | 2.08394 | 17 ft | 9 kts | 65° |
| 2026-05-04 01:09 | 41.28774 | 2.08468 | 18 ft | 9 kts | 57° |
| 2026-05-04 01:09 | 41.28795 | 2.08488 | 17 ft | 0 kts | 21° |
| 2026-05-04 01:10 | 41.28796 | 2.08488 | 17 ft | 0 kts | 21° |
| 2026-05-04 01:10 | 41.28922 | 2.08550 | 18 ft | 55 kts | 19° |
| 2026-05-04 01:10 | 41.29531 | 2.08828 | 20 ft | 127 kts | 19° |
| 2026-05-04 01:10 | 41.30529 | 2.09287 | 224 ft | 164 kts | 19° |
| 2026-05-04 01:11 | 41.31621 | 2.09862 | 827 ft | 180 kts | 22° |
| 2026-05-04 01:11 | 41.32793 | 2.10601 | 1473 ft | 193 kts | 34° |
| 2026-05-04 01:11 | 41.33594 | 2.12120 | 1853 ft | 221 kts | 74° |
| 2026-05-04 01:11 | 41.33498 | 2.14356 | 1452 ft | 275 kts | 112° |
| 2026-05-04 01:12 | 41.32278 | 2.16361 | 2202 ft | 276 kts | 135° |
| 2026-05-04 01:12 | 41.31107 | 2.18331 | 3424 ft | 268 kts | 123° |
| 2026-05-04 01:12 | 41.30253 | 2.20485 | 4623 ft | 257 kts | 116° |
| 2026-05-04 01:12 | 41.29601 | 2.22624 | 5867 ft | 242 kts | 113° |
| 2026-05-04 01:13 | 41.29064 | 2.24660 | 7071 ft | 228 kts | 112° |
| 2026-05-04 01:13 | 41.28562 | 2.26675 | 7821 ft | 233 kts | 111° |
| 2026-05-04 01:13 | 41.28048 | 2.28784 | 8532 ft | 238 kts | 111° |
| 2026-05-04 01:13 | 41.27540 | 2.30860 | 9254 ft | 241 kts | 113° |
| 2026-05-04 01:14 | 41.26850 | 2.33006 | 9626 ft | 262 kts | 119° |
| 2026-05-04 01:14 | 41.26016 | 2.35251 | 9850 ft | 287 kts | 120° |
| 2026-05-04 01:14 | 41.25096 | 2.37700 | 10276 ft | 305 kts | 120° |
| 2026-05-04 01:14 | 41.24101 | 2.40367 | 10446 ft | 331 kts | 119° |
| 2026-05-04 01:15 | 41.23049 | 2.43213 | 10625 ft | 355 kts | 119° |
| 2026-05-04 01:15 | 41.21934 | 2.46252 | 10786 ft | 377 kts | 118° |
| 2026-05-04 01:15 | 41.20766 | 2.49459 | 11078 ft | 392 kts | 118° |
| 2026-05-04 01:15 | 41.19567 | 2.52757 | 11530 ft | 401 kts | 118° |
| 2026-05-04 01:16 | 41.18342 | 2.56122 | 12125 ft | 405 kts | 118° |
| 2026-05-04 01:16 | 41.17134 | 2.59433 | 13216 ft | 395 kts | 119° |
| 2026-05-04 01:16 | 41.15824 | 2.62585 | 14318 ft | 382 kts | 131° |
| 2026-05-04 01:16 | 41.13905 | 2.64842 | 15501 ft | 361 kts | 155° |
| 2026-05-04 01:17 | 41.11663 | 2.66089 | 16793 ft | 339 kts | 169° |
| 2026-05-04 01:17 | 41.09424 | 2.66570 | 18153 ft | 316 kts | 183° |
| 2026-05-04 01:17 | 41.07249 | 2.66442 | 19045 ft | 313 kts | 189° |
| 2026-05-04 01:17 | 41.05057 | 2.66161 | 19681 ft | 319 kts | 190° |
| 2026-05-04 01:18 | 41.02836 | 2.65883 | 20331 ft | 323 kts | 189° |
| 2026-05-04 01:18 | 41.00574 | 2.65623 | 20983 ft | 327 kts | 189° |
| 2026-05-04 01:18 | 40.98299 | 2.65339 | 21628 ft | 329 kts | 194° |
| 2026-05-04 01:18 | 40.96184 | 2.64282 | 22212 ft | 326 kts | 215° |
| 2026-05-04 01:19 | 40.95023 | 2.63042 | 22670 ft | 325 kts | 226° |
| 2026-05-04 01:19 | 40.93649 | 2.60664 | 23240 ft | 329 kts | 242° |
| 2026-05-04 01:19 | 40.92834 | 2.57815 | 23813 ft | 333 kts | 251° |
| 2026-05-04 01:19 | 40.92153 | 2.54864 | 24353 ft | 338 kts | 251° |
| 2026-05-04 01:20 | 40.91478 | 2.51873 | 24895 ft | 341 kts | 251° |
| 2026-05-04 01:20 | 40.90795 | 2.48859 | 25486 ft | 342 kts | 251° |
| 2026-05-04 01:20 | 40.90103 | 2.45836 | 26027 ft | 345 kts | 251° |
| 2026-05-04 01:20 | 40.89400 | 2.42801 | 26525 ft | 348 kts | 251° |
| 2026-05-04 01:21 | 40.88684 | 2.39730 | 27057 ft | 350 kts | 251° |
| 2026-05-04 01:21 | 40.87964 | 2.36655 | 27560 ft | 352 kts | 251° |
| 2026-05-04 01:21 | 40.87237 | 2.33560 | 28044 ft | 354 kts | 251° |
| 2026-05-04 01:21 | 40.86505 | 2.30448 | 28510 ft | 355 kts | 251° |
| 2026-05-04 01:22 | 40.85768 | 2.27322 | 28939 ft | 358 kts | 251° |
| 2026-05-04 01:22 | 40.85029 | 2.24191 | 29352 ft | 361 kts | 251° |
| 2026-05-04 01:22 | 40.84274 | 2.20996 | 29777 ft | 363 kts | 251° |
| 2026-05-04 01:22 | 40.83520 | 2.17809 | 30218 ft | 364 kts | 251° |
| 2026-05-04 01:23 | 40.82761 | 2.14608 | 30654 ft | 365 kts | 251° |
| 2026-05-04 01:23 | 40.82001 | 2.11410 | 31093 ft | 365 kts | 251° |
| 2026-05-04 01:23 | 40.81243 | 2.08212 | 31519 ft | 366 kts | 252° |
| 2026-05-04 01:23 | 40.80482 | 2.05007 | 31920 ft | 366 kts | 252° |
| 2026-05-04 01:24 | 40.79707 | 2.01758 | 32313 ft | 366 kts | 252° |
| 2026-05-04 01:24 | 40.78940 | 1.98544 | 32697 ft | 367 kts | 252° |
| 2026-05-04 01:24 | 40.78175 | 1.95346 | 33100 ft | 366 kts | 252° |
| 2026-05-04 01:24 | 40.77409 | 1.92142 | 33480 ft | 366 kts | 252° |
| 2026-05-04 01:25 | 40.76643 | 1.88944 | 33814 ft | 366 kts | 252° |
| 2026-05-04 01:25 | 40.75873 | 1.85732 | 34107 ft | 368 kts | 252° |
| 2026-05-04 01:25 | 40.75099 | 1.82502 | 34383 ft | 369 kts | 252° |
| 2026-05-04 01:25 | 40.74321 | 1.79271 | 34628 ft | 371 kts | 252° |
| 2026-05-04 01:26 | 40.73540 | 1.76025 | 34886 ft | 373 kts | 252° |
| 2026-05-04 01:26 | 40.72752 | 1.72760 | 35152 ft | 374 kts | 252° |
| 2026-05-04 01:26 | 40.71961 | 1.69484 | 35377 ft | 376 kts | 252° |
| 2026-05-04 01:26 | 40.71173 | 1.66228 | 35576 ft | 378 kts | 252° |
| 2026-05-04 01:27 | 40.70361 | 1.62874 | 35796 ft | 380 kts | 252° |
| 2026-05-04 01:27 | 40.69556 | 1.59555 | 36012 ft | 381 kts | 252° |
| 2026-05-04 01:27 | 40.68747 | 1.56225 | 36212 ft | 383 kts | 252° |
| 2026-05-04 01:27 | 40.67934 | 1.52877 | 36384 ft | 385 kts | 252° |
| 2026-05-04 01:28 | 40.67116 | 1.49513 | 36553 ft | 387 kts | 252° |
| 2026-05-04 01:28 | 40.66290 | 1.46127 | 36778 ft | 387 kts | 252° |
| 2026-05-04 01:28 | 40.65468 | 1.42763 | 37029 ft | 387 kts | 252° |
| 2026-05-04 01:29 | 40.63798 | 1.35938 | 37012 ft | 395 kts | 252° |
| 2026-05-04 01:29 | 40.62103 | 1.29034 | 37015 ft | 397 kts | 252° |
| 2026-05-04 01:30 | 40.60399 | 1.22118 | 37018 ft | 398 kts | 252° |
| 2026-05-04 01:30 | 40.58680 | 1.15143 | 37018 ft | 398 kts | 252° |
| 2026-05-04 01:31 | 40.56966 | 1.08218 | 37009 ft | 398 kts | 252° |
| 2026-05-04 01:31 | 40.55173 | 1.01348 | 36997 ft | 398 kts | 245° |
| 2026-05-04 01:31 | 40.53692 | 0.98279 | 37020 ft | 400 kts | 232° |
| 2026-05-04 01:32 | 40.51814 | 0.95569 | 37014 ft | 401 kts | 230° |
| 2026-05-04 01:32 | 40.47994 | 0.90236 | 37004 ft | 401 kts | 230° |
| 2026-05-04 01:33 | 40.44188 | 0.84871 | 37009 ft | 400 kts | 230° |
| 2026-05-04 01:33 | 40.40411 | 0.79511 | 37007 ft | 400 kts | 230° |
| 2026-05-04 01:34 | 40.36631 | 0.74140 | 37006 ft | 399 kts | 230° |
| 2026-05-04 01:34 | 40.32871 | 0.68804 | 37008 ft | 399 kts | 230° |
| 2026-05-04 01:35 | 40.29096 | 0.63459 | 37008 ft | 399 kts | 230° |
| 2026-05-04 01:35 | 40.25331 | 0.58142 | 37012 ft | 398 kts | 230° |
| 2026-05-04 01:36 | 40.21558 | 0.52829 | 37003 ft | 398 kts | 230° |
| 2026-05-04 01:36 | 40.17785 | 0.47526 | 37008 ft | 398 kts | 230° |
| 2026-05-04 01:37 | 40.14013 | 0.42229 | 37013 ft | 398 kts | 230° |
| 2026-05-04 01:37 | 40.10242 | 0.36942 | 37009 ft | 397 kts | 230° |
| 2026-05-04 01:38 | 40.06474 | 0.31668 | 37009 ft | 397 kts | 230° |
| 2026-05-04 01:38 | 40.02702 | 0.26392 | 37008 ft | 397 kts | 230° |
| 2026-05-04 01:39 | 39.98954 | 0.21166 | 37000 ft | 397 kts | 230° |
| 2026-05-04 01:39 | 39.95162 | 0.15874 | 37000 ft | 397 kts | 230° |
| 2026-05-04 01:40 | 39.91399 | 0.10628 | 36999 ft | 396 kts | 230° |
| 2026-05-04 01:40 | 39.87628 | 0.05376 | 36998 ft | 396 kts | 230° |
| 2026-05-04 01:41 | 39.83861 | 0.00143 | 37000 ft | 396 kts | 230° |
| 2026-05-04 01:41 | 39.80095 | -0.05070 | 37002 ft | 394 kts | 230° |
| 2026-05-04 01:42 | 39.76343 | -0.10247 | 36997 ft | 392 kts | 230° |
| 2026-05-04 01:42 | 39.72608 | -0.15393 | 36999 ft | 390 kts | 230° |
| 2026-05-04 01:43 | 39.68886 | -0.20516 | 37000 ft | 389 kts | 230° |
| 2026-05-04 01:43 | 39.65143 | -0.25660 | 37000 ft | 389 kts | 230° |
| 2026-05-04 01:44 | 39.61426 | -0.30762 | 36999 ft | 389 kts | 230° |
| 2026-05-04 01:44 | 39.57705 | -0.35861 | 36999 ft | 389 kts | 230° |
| 2026-05-04 01:45 | 39.53973 | -0.40965 | 36990 ft | 389 kts | 230° |
| 2026-05-04 01:45 | 39.48420 | -0.48580 | 36988 ft | 389 kts | 232° |
| 2026-05-04 01:46 | 39.45111 | -0.54150 | 36988 ft | 387 kts | 236° |
| 2026-05-04 01:46 | 39.41883 | -0.59729 | 36994 ft | 387 kts | 236° |
| 2026-05-04 01:47 | 39.38612 | -0.65324 | 36995 ft | 388 kts | 235° |
| 2026-05-04 01:47 | 39.35878 | -0.69973 | 37005 ft | 388 kts | 235° |
| 2026-05-04 01:48 | 39.32608 | -0.75522 | 36998 ft | 387 kts | 235° |
| 2026-05-04 01:48 | 39.29347 | -0.81051 | 37005 ft | 388 kts | 235° |
| 2026-05-04 01:49 | 39.26054 | -0.86618 | 37008 ft | 387 kts | 235° |
| 2026-05-04 01:49 | 39.22778 | -0.92141 | 37007 ft | 387 kts | 235° |
| 2026-05-04 01:50 | 39.19495 | -0.97666 | 36994 ft | 388 kts | 235° |
| 2026-05-04 01:50 | 39.16211 | -1.03180 | 37007 ft | 388 kts | 235° |
| 2026-05-04 01:51 | 39.12922 | -1.08702 | 37008 ft | 388 kts | 235° |
| 2026-05-04 01:51 | 39.09616 | -1.14240 | 37015 ft | 388 kts | 235° |
| 2026-05-04 01:52 | 39.06325 | -1.19745 | 37004 ft | 388 kts | 235° |
| 2026-05-04 01:52 | 39.03028 | -1.25249 | 37006 ft | 388 kts | 235° |
| 2026-05-04 01:53 | 38.99736 | -1.30740 | 37014 ft | 388 kts | 235° |
| 2026-05-04 01:53 | 38.96442 | -1.36235 | 37008 ft | 388 kts | 235° |
| 2026-05-04 01:54 | 38.93100 | -1.41801 | 37014 ft | 387 kts | 235° |
| 2026-05-04 01:54 | 38.89814 | -1.47264 | 37017 ft | 387 kts | 235° |
| 2026-05-04 01:55 | 38.86522 | -1.52730 | 37021 ft | 387 kts | 235° |
| 2026-05-04 01:55 | 38.83231 | -1.58186 | 37016 ft | 387 kts | 235° |
| 2026-05-04 01:56 | 38.79940 | -1.63630 | 37018 ft | 386 kts | 235° |
| 2026-05-04 01:56 | 38.76645 | -1.69075 | 37017 ft | 386 kts | 235° |
| 2026-05-04 01:57 | 38.73353 | -1.74506 | 37021 ft | 385 kts | 235° |
| 2026-05-04 01:57 | 38.70061 | -1.79920 | 37015 ft | 385 kts | 235° |
| 2026-05-04 01:58 | 38.66745 | -1.85358 | 37016 ft | 385 kts | 235° |
| 2026-05-04 01:58 | 38.63468 | -1.90728 | 37021 ft | 385 kts | 235° |
| 2026-05-04 01:59 | 38.60154 | -1.96151 | 37015 ft | 384 kts | 235° |
| 2026-05-04 01:59 | 38.56867 | -2.01524 | 37014 ft | 384 kts | 235° |
| 2026-05-04 02:00 | 38.53571 | -2.06900 | 37018 ft | 384 kts | 235° |
| 2026-05-04 02:00 | 38.50279 | -2.12262 | 37026 ft | 383 kts | 235° |
| 2026-05-04 02:01 | 38.46991 | -2.17616 | 37016 ft | 383 kts | 235° |
| 2026-05-04 02:01 | 38.43694 | -2.22979 | 37016 ft | 384 kts | 235° |
| 2026-05-04 02:02 | 38.40398 | -2.28332 | 37002 ft | 383 kts | 235° |
| 2026-05-04 02:02 | 38.37105 | -2.33669 | 37008 ft | 383 kts | 235° |
| 2026-05-04 02:03 | 38.33582 | -2.38772 | 37008 ft | 385 kts | 230° |
| 2026-05-04 02:03 | 38.29878 | -2.43698 | 37002 ft | 386 kts | 230° |
| 2026-05-04 02:04 | 38.26171 | -2.48641 | 37008 ft | 385 kts | 230° |
| 2026-05-04 02:04 | 38.22459 | -2.53604 | 37013 ft | 385 kts | 230° |
| 2026-05-04 02:05 | 38.18787 | -2.58515 | 36999 ft | 386 kts | 230° |
| 2026-05-04 02:05 | 38.15098 | -2.63443 | 37009 ft | 385 kts | 230° |
| 2026-05-04 02:06 | 38.11398 | -2.68378 | 37008 ft | 385 kts | 230° |
| 2026-05-04 02:06 | 38.07673 | -2.73339 | 37019 ft | 385 kts | 230° |
| 2026-05-04 02:07 | 38.03976 | -2.78254 | 37013 ft | 386 kts | 230° |
| 2026-05-04 02:07 | 38.00263 | -2.83185 | 37011 ft | 385 kts | 230° |
| 2026-05-04 02:08 | 37.96559 | -2.88094 | 36995 ft | 385 kts | 230° |
| 2026-05-04 02:08 | 37.92857 | -2.92981 | 37012 ft | 385 kts | 230° |
| 2026-05-04 02:09 | 37.89167 | -2.97832 | 37006 ft | 384 kts | 230° |
| 2026-05-04 02:09 | 37.85437 | -3.02730 | 37006 ft | 386 kts | 230° |
| 2026-05-04 02:10 | 37.81708 | -3.07623 | 37004 ft | 385 kts | 230° |
| 2026-05-04 02:10 | 37.77983 | -3.12504 | 37020 ft | 385 kts | 230° |
| 2026-05-04 02:11 | 37.74285 | -3.17341 | 37020 ft | 385 kts | 230° |
| 2026-05-04 02:11 | 37.70546 | -3.22233 | 37017 ft | 384 kts | 230° |
| 2026-05-04 02:12 | 37.66839 | -3.27092 | 37022 ft | 384 kts | 230° |
| 2026-05-04 02:12 | 37.63139 | -3.31936 | 37017 ft | 384 kts | 230° |
| 2026-05-04 02:13 | 37.59426 | -3.36789 | 37015 ft | 384 kts | 230° |
| 2026-05-04 02:13 | 37.55716 | -3.41631 | 37019 ft | 383 kts | 230° |
| 2026-05-04 02:14 | 37.52009 | -3.46461 | 37021 ft | 383 kts | 230° |
| 2026-05-04 02:14 | 37.48882 | -3.50530 | 37020 ft | 383 kts | 230° |
| 2026-05-04 02:15 | 37.45173 | -3.55349 | 37020 ft | 383 kts | 230° |
| 2026-05-04 02:15 | 37.41465 | -3.60163 | 37015 ft | 383 kts | 230° |
| 2026-05-04 02:16 | 37.37748 | -3.64974 | 37007 ft | 383 kts | 230° |
| 2026-05-04 02:16 | 37.34048 | -3.69750 | 37020 ft | 384 kts | 230° |
| 2026-05-04 02:17 | 37.30294 | -3.74589 | 37021 ft | 384 kts | 230° |
| 2026-05-04 02:17 | 37.26565 | -3.79391 | 36946 ft | 385 kts | 230° |
| 2026-05-04 02:18 | 37.24704 | -3.81784 | 36637 ft | 379 kts | 230° |
| 2026-05-04 02:18 | 37.22876 | -3.84129 | 36388 ft | 372 kts | 230° |
| 2026-05-04 02:18 | 37.21049 | -3.86476 | 36144 ft | 373 kts | 230° |
| 2026-05-04 02:18 | 37.19224 | -3.88822 | 35902 ft | 378 kts | 230° |
| 2026-05-04 02:19 | 37.17368 | -3.91207 | 35658 ft | 384 kts | 230° |
| 2026-05-04 02:19 | 37.15492 | -3.93616 | 35413 ft | 390 kts | 229° |
| 2026-05-04 02:19 | 37.13588 | -3.96054 | 35167 ft | 392 kts | 229° |
| 2026-05-04 02:19 | 37.11673 | -3.98506 | 34478 ft | 393 kts | 229° |
| 2026-05-04 02:20 | 37.09779 | -4.00923 | 33805 ft | 386 kts | 229° |
| 2026-05-04 02:20 | 37.07904 | -4.03313 | 33028 ft | 383 kts | 229° |
| 2026-05-04 02:20 | 37.06046 | -4.05683 | 32236 ft | 380 kts | 229° |
| 2026-05-04 02:20 | 37.04200 | -4.08039 | 31441 ft | 377 kts | 229° |
| 2026-05-04 02:21 | 37.02363 | -4.10382 | 30594 ft | 376 kts | 229° |
| 2026-05-04 02:21 | 37.00541 | -4.12704 | 29764 ft | 372 kts | 229° |
| 2026-05-04 02:21 | 36.98723 | -4.15020 | 28859 ft | 372 kts | 228° |
| 2026-05-04 02:21 | 36.96892 | -4.17352 | 27928 ft | 385 kts | 228° |
| 2026-05-04 02:22 | 36.94942 | -4.19837 | 26895 ft | 407 kts | 228° |
| 2026-05-04 02:22 | 36.92954 | -4.22383 | 25829 ft | 418 kts | 228° |
| 2026-05-04 02:22 | 36.90923 | -4.24933 | 25021 ft | 406 kts | 227° |
| 2026-05-04 02:22 | 36.88967 | -4.27403 | 24209 ft | 392 kts | 228° |
| 2026-05-04 02:23 | 36.87081 | -4.29798 | 23469 ft | 381 kts | 228° |
| 2026-05-04 02:23 | 36.85253 | -4.32118 | 22722 ft | 370 kts | 227° |
| 2026-05-04 02:23 | 36.83464 | -4.34384 | 22026 ft | 365 kts | 227° |
| 2026-05-04 02:23 | 36.81623 | -4.36628 | 21332 ft | 379 kts | 223° |
| 2026-05-04 02:24 | 36.79471 | -4.38627 | 20681 ft | 386 kts | 215° |
| 2026-05-04 02:24 | 36.77204 | -4.40369 | 19624 ft | 380 kts | 214° |
| 2026-05-04 02:24 | 36.74976 | -4.42106 | 18485 ft | 376 kts | 214° |
| 2026-05-04 02:24 | 36.72795 | -4.43824 | 17687 ft | 363 kts | 214° |
| 2026-05-04 02:25 | 36.70708 | -4.45474 | 16955 ft | 349 kts | 214° |
| 2026-05-04 02:25 | 36.68705 | -4.47059 | 16306 ft | 338 kts | 214° |
| 2026-05-04 02:25 | 36.66737 | -4.48619 | 15660 ft | 329 kts | 215° |
| 2026-05-04 02:25 | 36.64792 | -4.50163 | 15030 ft | 338 kts | 215° |
| 2026-05-04 02:26 | 36.62751 | -4.51788 | 14361 ft | 361 kts | 215° |
| 2026-05-04 02:26 | 36.60623 | -4.53476 | 13636 ft | 361 kts | 214° |
| 2026-05-04 02:26 | 36.58548 | -4.55114 | 12942 ft | 345 kts | 214° |
| 2026-05-04 02:26 | 36.56562 | -4.56677 | 12281 ft | 332 kts | 214° |
| 2026-05-04 02:27 | 36.54637 | -4.58195 | 11636 ft | 323 kts | 214° |
| 2026-05-04 02:27 | 36.52775 | -4.59664 | 11063 ft | 322 kts | 214° |
| 2026-05-04 02:27 | 36.50808 | -4.61220 | 10599 ft | 348 kts | 214° |
| 2026-05-04 02:27 | 36.48717 | -4.62873 | 10085 ft | 357 kts | 214° |
| 2026-05-04 02:28 | 36.46610 | -4.64533 | 9817 ft | 360 kts | 214° |
| 2026-05-04 02:28 | 36.44534 | -4.66164 | 9572 ft | 343 kts | 214° |
| 2026-05-04 02:28 | 36.42576 | -4.67700 | 9224 ft | 322 kts | 214° |
| 2026-05-04 02:28 | 36.40735 | -4.69144 | 8888 ft | 304 kts | 214° |
| 2026-05-04 02:29 | 36.38995 | -4.70511 | 8548 ft | 289 kts | 214° |
| 2026-05-04 02:29 | 36.37326 | -4.71821 | 8218 ft | 277 kts | 214° |
| 2026-05-04 02:29 | 36.35729 | -4.73074 | 7886 ft | 267 kts | 214° |
| 2026-05-04 02:29 | 36.34179 | -4.74292 | 7431 ft | 263 kts | 214° |
| 2026-05-04 02:30 | 36.32634 | -4.75504 | 6882 ft | 263 kts | 214° |
| 2026-05-04 02:30 | 36.31089 | -4.76716 | 6356 ft | 262 kts | 214° |
| 2026-05-04 02:30 | 36.29582 | -4.77898 | 6123 ft | 253 kts | 214° |
| 2026-05-04 02:30 | 36.28099 | -4.79061 | 5866 ft | 251 kts | 214° |
| 2026-05-04 02:31 | 36.26630 | -4.80210 | 5619 ft | 250 kts | 214° |
| 2026-05-04 02:31 | 36.25208 | -4.81322 | 5493 ft | 232 kts | 214° |
| 2026-05-04 02:31 | 36.23901 | -4.82342 | 5350 ft | 213 kts | 214° |
| 2026-05-04 02:31 | 36.22691 | -4.83287 | 5217 ft | 197 kts | 215° |
| 2026-05-04 02:32 | 36.21576 | -4.84159 | 5003 ft | 187 kts | 216° |
| 2026-05-04 02:32 | 36.20490 | -4.85010 | 4746 ft | 183 kts | 216° |
| 2026-05-04 02:32 | 36.19416 | -4.85851 | 4504 ft | 184 kts | 216° |
| 2026-05-04 02:32 | 36.18325 | -4.86704 | 4264 ft | 187 kts | 216° |
| 2026-05-04 02:33 | 36.17222 | -4.87564 | 4018 ft | 187 kts | 216° |
| 2026-05-04 02:33 | 36.16124 | -4.88418 | 3767 ft | 186 kts | 216° |
| 2026-05-04 02:33 | 36.15219 | -4.89485 | 3479 ft | 180 kts | 248° |
| 2026-05-04 02:33 | 36.15067 | -4.90973 | 3274 ft | 174 kts | 273° |
| 2026-05-04 02:34 | 36.15107 | -4.92439 | 3045 ft | 172 kts | 270° |
| 2026-05-04 02:34 | 36.15118 | -4.93899 | 2801 ft | 168 kts | 271° |
| 2026-05-04 02:34 | 36.15130 | -4.95344 | 2543 ft | 166 kts | 271° |
| 2026-05-04 02:34 | 36.15145 | -4.96770 | 2284 ft | 165 kts | 270° |
| 2026-05-04 02:35 | 36.15157 | -4.98175 | 2038 ft | 163 kts | 271° |
| 2026-05-04 02:35 | 36.15169 | -4.99538 | 2014 ft | 157 kts | 271° |
| 2026-05-04 02:35 | 36.15187 | -5.00899 | 2008 ft | 158 kts | 271° |
| 2026-05-04 02:35 | 36.15205 | -5.02261 | 2010 ft | 158 kts | 271° |
| 2026-05-04 02:36 | 36.15224 | -5.03618 | 2007 ft | 158 kts | 271° |
| 2026-05-04 02:36 | 36.15242 | -5.04968 | 2007 ft | 157 kts | 271° |
| 2026-05-04 02:36 | 36.15258 | -5.06321 | 2006 ft | 157 kts | 271° |
| 2026-05-04 02:36 | 36.15277 | -5.07674 | 2008 ft | 158 kts | 271° |
| 2026-05-04 02:37 | 36.15296 | -5.09031 | 2005 ft | 156 kts | 271° |
| 2026-05-04 02:37 | 36.15314 | -5.10371 | 2033 ft | 156 kts | 271° |
| 2026-05-04 02:37 | 36.15333 | -5.11726 | 2023 ft | 158 kts | 271° |
| 2026-05-04 02:37 | 36.15350 | -5.13080 | 2022 ft | 157 kts | 271° |
| 2026-05-04 02:38 | 36.15368 | -5.14432 | 2020 ft | 157 kts | 271° |
| 2026-05-04 02:38 | 36.15386 | -5.15784 | 2019 ft | 157 kts | 271° |
| 2026-05-04 02:38 | 36.15405 | -5.17138 | 2016 ft | 158 kts | 271° |
| 2026-05-04 02:38 | 36.15423 | -5.18492 | 2016 ft | 156 kts | 271° |
| 2026-05-04 02:39 | 36.15437 | -5.19820 | 2010 ft | 155 kts | 269° |
| 2026-05-04 02:39 | 36.15407 | -5.21158 | 2018 ft | 155 kts | 269° |
| 2026-05-04 02:39 | 36.15401 | -5.22472 | 2070 ft | 145 kts | 271° |
| 2026-05-04 02:39 | 36.15458 | -5.23628 | 2270 ft | 132 kts | 275° |
| 2026-05-04 02:40 | 36.15544 | -5.24700 | 2283 ft | 116 kts | 273° |
| 2026-05-04 02:40 | 36.15579 | -5.25663 | 1979 ft | 110 kts | 270° |
| 2026-05-04 02:40 | 36.15524 | -5.26641 | 1531 ft | 115 kts | 265° |
| 2026-05-04 02:40 | 36.15448 | -5.27617 | 1198 ft | 111 kts | 265° |
| 2026-05-04 02:41 | 36.15391 | -5.28592 | 1046 ft | 126 kts | 266° |
| 2026-05-04 02:41 | 36.15352 | -5.29668 | 1456 ft | 121 kts | 268° |
| 2026-05-04 02:41 | 36.15328 | -5.30682 | 1323 ft | 114 kts | 268° |
| 2026-05-04 02:41 | 36.15305 | -5.31666 | 1161 ft | 133 kts | 267° |
| 2026-05-04 02:42 | 36.15235 | -5.32848 | 1538 ft | 116 kts | 269° |
| 2026-05-04 02:42 | 36.15312 | -5.33709 | 1794 ft | 103 kts | 281° |
| 2026-05-04 02:42 | 36.15473 | -5.34582 | 2555 ft | 95 kts | 276° |
| 2026-05-04 02:42 | 36.15449 | -5.35367 | 3410 ft | 87 kts | 262° |
| 2026-05-04 02:43 | 36.15300 | -5.36082 | 4039 ft | 92 kts | 254° |
| 2026-05-04 02:43 | 36.15044 | -5.36949 | 4482 ft | 119 kts | 250° |
| 2026-05-04 02:43 | 36.14688 | -5.37936 | 5112 ft | 132 kts | 245° |
| 2026-05-04 02:43 | 36.14256 | -5.38904 | 6041 ft | 119 kts | 239° |
| 2026-05-04 02:44 | 36.13839 | -5.39739 | 6875 ft | 111 kts | 238° |
| 2026-05-04 02:44 | 36.13593 | -5.40692 | 7221 ft | 139 kts | 267° |
| 2026-05-04 02:44 | 36.13690 | -5.41578 | 6988 ft | 162 kts | 278° |
| 2026-05-04 02:44 | 36.13942 | -5.42971 | 6702 ft | 164 kts | 279° |
| 2026-05-04 02:45 | 36.14244 | -5.44357 | 6207 ft | 173 kts | 281° |
| 2026-05-04 02:45 | 36.14525 | -5.45809 | 6003 ft | 163 kts | 271° |
| 2026-05-04 02:45 | 36.14473 | -5.47105 | 6011 ft | 142 kts | 256° |
| 2026-05-04 02:45 | 36.14267 | -5.48286 | 6085 ft | 147 kts | 257° |
| 2026-05-04 02:46 | 36.14049 | -5.49617 | 6147 ft | 164 kts | 257° |
| 2026-05-04 02:46 | 36.13825 | -5.50991 | 6155 ft | 163 kts | 257° |
| 2026-05-04 02:46 | 36.13593 | -5.52383 | 6167 ft | 166 kts | 257° |
| 2026-05-04 02:46 | 36.13341 | -5.53802 | 6167 ft | 171 kts | 250° |
| 2026-05-04 02:47 | 36.12641 | -5.54936 | 6150 ft | 169 kts | 212° |
| 2026-05-04 02:47 | 36.11503 | -5.55269 | 6202 ft | 170 kts | 188° |
| 2026-05-04 02:47 | 36.10309 | -5.54994 | 6195 ft | 181 kts | 159° |
| 2026-05-04 02:47 | 36.09391 | -5.53855 | 6171 ft | 196 kts | 121° |
| 2026-05-04 02:48 | 36.08906 | -5.52252 | 6089 ft | 202 kts | 106° |
| 2026-05-04 02:48 | 36.08926 | -5.50515 | 5969 ft | 203 kts | 82° |
| 2026-05-04 02:48 | 36.09125 | -5.48753 | 5917 ft | 217 kts | 84° |
| 2026-05-04 02:48 | 36.09312 | -5.46813 | 5874 ft | 230 kts | 85° |
| 2026-05-04 02:49 | 36.09495 | -5.44846 | 5765 ft | 230 kts | 85° |
| 2026-05-04 02:49 | 36.09676 | -5.42883 | 5690 ft | 228 kts | 85° |
| 2026-05-04 02:49 | 36.09857 | -5.40949 | 5617 ft | 226 kts | 84° |
| 2026-05-04 02:49 | 36.10038 | -5.39019 | 5531 ft | 225 kts | 85° |
| 2026-05-04 02:50 | 36.10214 | -5.37097 | 5448 ft | 225 kts | 84° |
| 2026-05-04 02:50 | 36.10384 | -5.35167 | 5366 ft | 225 kts | 85° |
| 2026-05-04 02:50 | 36.10552 | -5.33243 | 5291 ft | 225 kts | 85° |
| 2026-05-04 02:50 | 36.10719 | -5.31320 | 5214 ft | 225 kts | 85° |
| 2026-05-04 02:51 | 36.10885 | -5.29400 | 5139 ft | 225 kts | 84° |
| 2026-05-04 02:51 | 36.11048 | -5.27471 | 5068 ft | 225 kts | 85° |
| 2026-05-04 02:51 | 36.11209 | -5.25550 | 4929 ft | 225 kts | 85° |
| 2026-05-04 02:51 | 36.11335 | -5.23622 | 4774 ft | 224 kts | 88° |
| 2026-05-04 02:52 | 36.11228 | -5.21727 | 4613 ft | 220 kts | 101° |
| 2026-05-04 02:52 | 36.10981 | -5.19860 | 4476 ft | 219 kts | 100° |
| 2026-05-04 02:52 | 36.10754 | -5.18001 | 4320 ft | 219 kts | 100° |
| 2026-05-04 02:52 | 36.10529 | -5.16137 | 4173 ft | 219 kts | 100° |
| 2026-05-04 02:53 | 36.10295 | -5.14246 | 4026 ft | 219 kts | 100° |
| 2026-05-04 02:53 | 36.10067 | -5.12401 | 3877 ft | 219 kts | 100° |
| 2026-05-04 02:53 | 36.09832 | -5.10538 | 3724 ft | 219 kts | 100° |
| 2026-05-04 02:53 | 36.09593 | -5.08652 | 3549 ft | 220 kts | 100° |
| 2026-05-04 02:54 | 36.09356 | -5.06795 | 3359 ft | 223 kts | 100° |
| 2026-05-04 02:54 | 36.09110 | -5.04871 | 3152 ft | 224 kts | 100° |
| 2026-05-04 02:54 | 36.08869 | -5.02992 | 2952 ft | 221 kts | 99° |
| 2026-05-04 02:54 | 36.08684 | -5.01144 | 2743 ft | 217 kts | 96° |
| 2026-05-04 02:55 | 36.08386 | -4.97465 | 2343 ft | 212 kts | 96° |
| 2026-05-04 02:55 | 36.08242 | -4.95654 | 2144 ft | 211 kts | 96° |
| 2026-05-04 02:55 | 36.08155 | -4.93872 | 2026 ft | 211 kts | 84° |
| 2026-05-04 02:56 | 36.08700 | -4.92247 | 1998 ft | 204 kts | 45° |
| 2026-05-04 02:56 | 36.09873 | -4.91335 | 1990 ft | 199 kts | 9° |
| 2026-05-04 02:56 | 36.11130 | -4.91600 | 1959 ft | 179 kts | 319° |
| 2026-05-04 02:56 | 36.11703 | -4.92864 | 1973 ft | 166 kts | 277° |
| 2026-05-04 02:57 | 36.12011 | -4.94234 | 1930 ft | 171 kts | 307° |
| 2026-05-04 02:57 | 36.13050 | -4.94937 | 1979 ft | 177 kts | 342° |
| 2026-05-04 02:57 | 36.14121 | -4.95582 | 1941 ft | 174 kts | 309° |
| 2026-05-04 02:57 | 36.14752 | -4.96840 | 1984 ft | 172 kts | 296° |
| 2026-05-04 02:58 | 36.15074 | -4.98268 | 1959 ft | 171 kts | 268° |
| 2026-05-04 02:58 | 36.15035 | -4.99732 | 1974 ft | 171 kts | 269° |
| 2026-05-04 02:58 | 36.15044 | -5.01199 | 1973 ft | 170 kts | 270° |
| 2026-05-04 02:58 | 36.15055 | -5.02665 | 1970 ft | 170 kts | 270° |
| 2026-05-04 02:59 | 36.15064 | -5.04111 | 1967 ft | 170 kts | 270° |
| 2026-05-04 02:59 | 36.15073 | -5.05573 | 1967 ft | 170 kts | 269° |
| 2026-05-04 02:59 | 36.15082 | -5.07061 | 1966 ft | 170 kts | 269° |
| 2026-05-04 02:59 | 36.15089 | -5.08524 | 1966 ft | 170 kts | 269° |
| 2026-05-04 03:00 | 36.15094 | -5.09989 | 1965 ft | 170 kts | 270° |
| 2026-05-04 03:00 | 36.15101 | -5.11452 | 1965 ft | 170 kts | 269° |
| 2026-05-04 03:00 | 36.15108 | -5.12901 | 1966 ft | 170 kts | 269° |
| 2026-05-04 03:00 | 36.15112 | -5.14367 | 1966 ft | 169 kts | 269° |
| 2026-05-04 03:01 | 36.15115 | -5.15817 | 1959 ft | 168 kts | 269° |
| 2026-05-04 03:01 | 36.15120 | -5.17254 | 1959 ft | 168 kts | 269° |
| 2026-05-04 03:01 | 36.15123 | -5.18699 | 1962 ft | 168 kts | 269° |
| 2026-05-04 03:01 | 36.15126 | -5.20148 | 1946 ft | 170 kts | 269° |
| 2026-05-04 03:02 | 36.15129 | -5.21642 | 1705 ft | 175 kts | 269° |
| 2026-05-04 03:02 | 36.15131 | -5.23137 | 1477 ft | 172 kts | 269° |
| 2026-05-04 03:02 | 36.15133 | -5.24623 | 1261 ft | 169 kts | 269° |
| 2026-05-04 03:02 | 36.15135 | -5.26068 | 1056 ft | 168 kts | 269° |
| 2026-05-04 03:03 | 36.15137 | -5.27514 | 856 ft | 168 kts | 269° |
| 2026-05-04 03:03 | 36.15139 | -5.28950 | 664 ft | 164 kts | 269° |
| 2026-05-04 03:03 | 36.15149 | -5.30314 | 437 ft | 155 kts | 271° |
| 2026-05-04 03:03 | 36.15185 | -5.31539 | 500 ft | 124 kts | 272° |
| 2026-05-04 03:04 | 36.15181 | -5.32654 | 606 ft | 127 kts | 268° |
| 2026-05-04 03:04 | 36.15171 | -5.33743 | 207 ft | 124 kts | 266° |
| 2026-05-04 03:04 | 36.15130 | -5.34763 | 20 ft | 105 kts | 268° |
| 2026-05-04 03:04 | 36.15110 | -5.35357 | 23 ft | 55 kts | 268° |
| 2026-05-04 03:05 | 36.15099 | -5.35687 | 19 ft | 18 kts | 266° |
| 2026-05-04 03:05 | 36.15092 | -5.35819 | 18 ft | 11 kts | 261° |
| 2026-05-04 03:05 | 36.15064 | -5.35891 | 20 ft | 11 kts | 252° |
| 2026-05-04 03:05 | 36.15085 | -5.35946 | 18 ft | 5 kts | 358° |
| 2026-05-04 03:06 | 36.15102 | -5.35892 | 18 ft | 14 kts | 92° |
| 2026-05-04 03:06 | 36.15098 | -5.35756 | 18 ft | 16 kts | 91° |
| 2026-05-04 03:06 | 36.15101 | -5.35605 | 19 ft | 19 kts | 88° |
| 2026-05-04 03:06 | 36.15106 | -5.35439 | 20 ft | 20 kts | 87° |
| 2026-05-04 03:07 | 36.15111 | -5.35268 | 21 ft | 20 kts | 88° |
| 2026-05-04 03:07 | 36.15117 | -5.35108 | 21 ft | 18 kts | 87° |
| 2026-05-04 03:07 | 36.15124 | -5.34954 | 21 ft | 18 kts | 88° |
| 2026-05-04 03:07 | 36.15128 | -5.34808 | 20 ft | 17 kts | 87° |
| 2026-05-04 03:08 | 36.15145 | -5.34693 | 22 ft | 10 kts | 46° |
| 2026-05-04 03:08 | 36.15198 | -5.34677 | 19 ft | 3 kts | 2° |
| 2026-05-04 03:08 | 36.15233 | -5.34668 | 17 ft | 7 kts | 14° |
| 2026-05-04 03:08 | 36.15285 | -5.34668 | 16 ft | 5 kts | 358° |
| 2026-05-04 03:09 | 36.15301 | -5.34668 | 16 ft | 0 kts | 359° |